sensor_id;sensor_type;location;lat;lon;timestamp;P1;durP1;ratioP1;P2;durP2;ratioP2
62724;SDS011;49026;52.600;4.694;2023-06-26T00:00:23;6.75;;;4.50;;
62724;SDS011;49026;52.600;4.694;2023-06-26T00:02:48;9.77;;;4.90;;
62724;SDS011;49026;52.600;4.694;2023-06-26T00:05:13;7.25;;;5.07;;
62724;SDS011;49026;52.600;4.694;2023-06-26T00:07:39;6.85;;;4.63;;
62724;SDS011;49026;52.600;4.694;2023-06-26T00:10:04;7.22;;;4.85;;
62724;SDS011;49026;52.600;4.694;2023-06-26T00:12:37;7.53;;;4.68;;
62724;SDS011;49026;52.600;4.694;2023-06-26T00:15:03;8.35;;;4.80;;
62724;SDS011;49026;52.600;4.694;2023-06-26T00:17:28;5.90;;;4.28;;
62724;SDS011;49026;52.600;4.694;2023-06-26T00:19:54;7.43;;;4.88;;
62724;SDS011;49026;52.600;4.694;2023-06-26T00:22:20;10.18;;;4.95;;
62724;SDS011;49026;52.600;4.694;2023-06-26T00:24:46;8.73;;;5.18;;
62724;SDS011;49026;52.600;4.694;2023-06-26T00:27:11;8.07;;;5.28;;
62724;SDS011;49026;52.600;4.694;2023-06-26T00:29:37;10.48;;;5.10;;
62724;SDS011;49026;52.600;4.694;2023-06-26T00:32:03;11.00;;;4.90;;
62724;SDS011;49026;52.600;4.694;2023-06-26T00:34:29;9.43;;;4.50;;
62724;SDS011;49026;52.600;4.694;2023-06-26T00:36:57;7.88;;;4.45;;
62724;SDS011;49026;52.600;4.694;2023-06-26T00:39:22;8.05;;;4.80;;
62724;SDS011;49026;52.600;4.694;2023-06-26T00:41:50;8.48;;;4.55;;
62724;SDS011;49026;52.600;4.694;2023-06-26T00:44:18;9.23;;;4.93;;
62724;SDS011;49026;52.600;4.694;2023-06-26T00:46:44;7.25;;;4.95;;
62724;SDS011;49026;52.600;4.694;2023-06-26T00:49:09;12.02;;;5.00;;
62724;SDS011;49026;52.600;4.694;2023-06-26T00:51:34;7.93;;;4.72;;
62724;SDS011;49026;52.600;4.694;2023-06-26T00:54:00;7.75;;;4.43;;
62724;SDS011;49026;52.600;4.694;2023-06-26T00:56:29;7.28;;;4.07;;
62724;SDS011;49026;52.600;4.694;2023-06-26T00:58:56;8.98;;;4.97;;
62724;SDS011;49026;52.600;4.694;2023-06-26T01:01:22;10.00;;;5.05;;
62724;SDS011;49026;52.600;4.694;2023-06-26T01:03:50;8.70;;;5.05;;
62724;SDS011;49026;52.600;4.694;2023-06-26T01:06:18;12.48;;;5.00;;
62724;SDS011;49026;52.600;4.694;2023-06-26T01:08:45;12.27;;;5.18;;
62724;SDS011;49026;52.600;4.694;2023-06-26T01:11:12;9.57;;;5.30;;
62724;SDS011;49026;52.600;4.694;2023-06-26T01:13:38;14.23;;;4.88;;
62724;SDS011;49026;52.600;4.694;2023-06-26T01:16:06;15.07;;;5.88;;
62724;SDS011;49026;52.600;4.694;2023-06-26T01:18:37;15.25;;;5.32;;
62724;SDS011;49026;52.600;4.694;2023-06-26T01:21:08;9.95;;;4.75;;
62724;SDS011;49026;52.600;4.694;2023-06-26T01:26:30;19.70;;;5.38;;
62724;SDS011;49026;52.600;4.694;2023-06-26T01:29:01;17.65;;;5.88;;
62724;SDS011;49026;52.600;4.694;2023-06-26T01:31:29;15.95;;;5.45;;
62724;SDS011;49026;52.600;4.694;2023-06-26T01:33:55;16.35;;;6.40;;
62724;SDS011;49026;52.600;4.694;2023-06-26T01:36:26;17.63;;;5.88;;
62724;SDS011;49026;52.600;4.694;2023-06-26T01:38:51;20.73;;;7.28;;
62724;SDS011;49026;52.600;4.694;2023-06-26T01:41:17;15.90;;;5.22;;
62724;SDS011;49026;52.600;4.694;2023-06-26T01:49:05;22.52;;;6.03;;
62724;SDS011;49026;52.600;4.694;2023-06-26T01:51:37;22.15;;;7.28;;
62724;SDS011;49026;52.600;4.694;2023-06-26T01:54:17;20.40;;;6.90;;
62724;SDS011;49026;52.600;4.694;2023-06-26T01:56:45;15.50;;;5.88;;
62724;SDS011;49026;52.600;4.694;2023-06-26T01:59:13;19.48;;;6.38;;
62724;SDS011;49026;52.600;4.694;2023-06-26T02:01:39;19.95;;;6.25;;
62724;SDS011;49026;52.600;4.694;2023-06-26T02:04:04;18.25;;;6.32;;
62724;SDS011;49026;52.600;4.694;2023-06-26T02:06:30;22.02;;;6.57;;
62724;SDS011;49026;52.600;4.694;2023-06-26T02:08:58;17.90;;;6.68;;
62724;SDS011;49026;52.600;4.694;2023-06-26T02:11:25;19.58;;;6.57;;
62724;SDS011;49026;52.600;4.694;2023-06-26T02:13:51;19.55;;;6.15;;
62724;SDS011;49026;52.600;4.694;2023-06-26T02:16:18;20.08;;;6.43;;
62724;SDS011;49026;52.600;4.694;2023-06-26T02:18:44;17.35;;;6.20;;
62724;SDS011;49026;52.600;4.694;2023-06-26T02:21:11;18.92;;;5.60;;
62724;SDS011;49026;52.600;4.694;2023-06-26T02:23:38;18.42;;;6.30;;
62724;SDS011;49026;52.600;4.694;2023-06-26T02:26:03;16.17;;;4.95;;
62724;SDS011;49026;52.600;4.694;2023-06-26T02:28:30;11.85;;;5.10;;
62724;SDS011;49026;52.600;4.694;2023-06-26T02:30:56;15.40;;;5.13;;
62724;SDS011;49026;52.600;4.694;2023-06-26T02:33:21;11.45;;;4.97;;
62724;SDS011;49026;52.600;4.694;2023-06-26T02:35:47;13.80;;;4.80;;
62724;SDS011;49026;52.600;4.694;2023-06-26T02:38:15;13.82;;;5.40;;
62724;SDS011;49026;52.600;4.694;2023-06-26T02:40:40;12.45;;;4.88;;
62724;SDS011;49026;52.600;4.694;2023-06-26T02:43:08;15.85;;;5.07;;
62724;SDS011;49026;52.600;4.694;2023-06-26T02:45:33;13.27;;;4.43;;
62724;SDS011;49026;52.600;4.694;2023-06-26T02:48:01;11.23;;;5.10;;
62724;SDS011;49026;52.600;4.694;2023-06-26T02:50:26;11.43;;;4.40;;
62724;SDS011;49026;52.600;4.694;2023-06-26T02:52:52;12.18;;;4.63;;
62724;SDS011;49026;52.600;4.694;2023-06-26T02:55:18;11.70;;;4.95;;
62724;SDS011;49026;52.600;4.694;2023-06-26T02:57:44;18.90;;;4.72;;
62724;SDS011;49026;52.600;4.694;2023-06-26T03:00:10;11.18;;;4.43;;
62724;SDS011;49026;52.600;4.694;2023-06-26T03:02:36;14.57;;;4.75;;
62724;SDS011;49026;52.600;4.694;2023-06-26T03:05:01;14.25;;;5.47;;
62724;SDS011;49026;52.600;4.694;2023-06-26T03:07:27;10.30;;;4.55;;
62724;SDS011;49026;52.600;4.694;2023-06-26T03:09:55;8.93;;;4.07;;
62724;SDS011;49026;52.600;4.694;2023-06-26T03:12:23;10.80;;;4.40;;
62724;SDS011;49026;52.600;4.694;2023-06-26T03:14:49;12.38;;;3.83;;
62724;SDS011;49026;52.600;4.694;2023-06-26T03:17:14;12.52;;;4.07;;
62724;SDS011;49026;52.600;4.694;2023-06-26T03:19:40;7.60;;;3.97;;
62724;SDS011;49026;52.600;4.694;2023-06-26T03:22:05;10.93;;;4.30;;
62724;SDS011;49026;52.600;4.694;2023-06-26T03:24:30;10.35;;;4.50;;
62724;SDS011;49026;52.600;4.694;2023-06-26T03:26:56;7.90;;;3.75;;
62724;SDS011;49026;52.600;4.694;2023-06-26T03:29:21;15.00;;;4.70;;
62724;SDS011;49026;52.600;4.694;2023-06-26T03:31:46;9.27;;;3.60;;
62724;SDS011;49026;52.600;4.694;2023-06-26T03:34:12;9.60;;;4.00;;
62724;SDS011;49026;52.600;4.694;2023-06-26T03:36:37;10.63;;;4.10;;
62724;SDS011;49026;52.600;4.694;2023-06-26T03:39:02;12.45;;;4.05;;
62724;SDS011;49026;52.600;4.694;2023-06-26T03:41:29;10.90;;;3.85;;
62724;SDS011;49026;52.600;4.694;2023-06-26T03:43:54;14.43;;;4.35;;
62724;SDS011;49026;52.600;4.694;2023-06-26T03:46:21;10.95;;;4.30;;
62724;SDS011;49026;52.600;4.694;2023-06-26T03:48:47;13.07;;;4.30;;
62724;SDS011;49026;52.600;4.694;2023-06-26T03:51:12;15.75;;;4.60;;
62724;SDS011;49026;52.600;4.694;2023-06-26T03:53:37;12.07;;;4.72;;
62724;SDS011;49026;52.600;4.694;2023-06-26T03:56:03;13.55;;;4.15;;
62724;SDS011;49026;52.600;4.694;2023-06-26T03:58:28;9.10;;;3.63;;
62724;SDS011;49026;52.600;4.694;2023-06-26T04:00:54;14.25;;;4.10;;
62724;SDS011;49026;52.600;4.694;2023-06-26T04:03:20;10.07;;;4.13;;
62724;SDS011;49026;52.600;4.694;2023-06-26T04:05:45;12.23;;;4.10;;
62724;SDS011;49026;52.600;4.694;2023-06-26T04:08:11;10.30;;;3.97;;
62724;SDS011;49026;52.600;4.694;2023-06-26T04:10:36;15.43;;;4.60;;
62724;SDS011;49026;52.600;4.694;2023-06-26T04:13:02;10.75;;;3.58;;
62724;SDS011;49026;52.600;4.694;2023-06-26T04:15:27;10.45;;;3.78;;
62724;SDS011;49026;52.600;4.694;2023-06-26T04:17:52;7.30;;;3.15;;
62724;SDS011;49026;52.600;4.694;2023-06-26T04:20:20;9.68;;;3.05;;
62724;SDS011;49026;52.600;4.694;2023-06-26T04:22:46;7.80;;;3.10;;
62724;SDS011;49026;52.600;4.694;2023-06-26T04:25:11;10.30;;;3.47;;
62724;SDS011;49026;52.600;4.694;2023-06-26T04:27:37;12.30;;;3.25;;
62724;SDS011;49026;52.600;4.694;2023-06-26T04:30:03;16.25;;;3.65;;
62724;SDS011;49026;52.600;4.694;2023-06-26T04:32:29;5.90;;;2.53;;
62724;SDS011;49026;52.600;4.694;2023-06-26T04:34:55;9.25;;;2.80;;
62724;SDS011;49026;52.600;4.694;2023-06-26T04:37:20;10.15;;;3.60;;
62724;SDS011;49026;52.600;4.694;2023-06-26T04:39:48;10.95;;;3.08;;
62724;SDS011;49026;52.600;4.694;2023-06-26T04:42:17;6.15;;;2.58;;
62724;SDS011;49026;52.600;4.694;2023-06-26T04:44:44;9.48;;;2.40;;
62724;SDS011;49026;52.600;4.694;2023-06-26T04:47:09;11.90;;;2.67;;
62724;SDS011;49026;52.600;4.694;2023-06-26T04:49:36;8.25;;;2.97;;
62724;SDS011;49026;52.600;4.694;2023-06-26T04:52:02;9.02;;;2.88;;
62724;SDS011;49026;52.600;4.694;2023-06-26T04:54:27;10.32;;;2.83;;
62724;SDS011;49026;52.600;4.694;2023-06-26T04:56:53;8.52;;;2.38;;
62724;SDS011;49026;52.600;4.694;2023-06-26T04:59:18;9.40;;;3.40;;
62724;SDS011;49026;52.600;4.694;2023-06-26T05:01:44;8.60;;;2.85;;
62724;SDS011;49026;52.600;4.694;2023-06-26T05:04:13;11.37;;;3.00;;
62724;SDS011;49026;52.600;4.694;2023-06-26T05:06:38;9.68;;;2.70;;
62724;SDS011;49026;52.600;4.694;2023-06-26T05:09:06;8.65;;;2.72;;
62724;SDS011;49026;52.600;4.694;2023-06-26T05:11:31;8.48;;;2.63;;
62724;SDS011;49026;52.600;4.694;2023-06-26T05:13:57;9.63;;;2.72;;
62724;SDS011;49026;52.600;4.694;2023-06-26T05:16:22;7.03;;;2.40;;
62724;SDS011;49026;52.600;4.694;2023-06-26T05:18:47;7.50;;;2.70;;
62724;SDS011;49026;52.600;4.694;2023-06-26T05:21:13;10.00;;;3.10;;
62724;SDS011;49026;52.600;4.694;2023-06-26T05:23:38;9.30;;;2.80;;
62724;SDS011;49026;52.600;4.694;2023-06-26T05:26:04;10.32;;;2.38;;
62724;SDS011;49026;52.600;4.694;2023-06-26T05:28:30;7.40;;;2.85;;
62724;SDS011;49026;52.600;4.694;2023-06-26T05:30:59;9.10;;;2.75;;
62724;SDS011;49026;52.600;4.694;2023-06-26T05:33:26;8.73;;;3.13;;
62724;SDS011;49026;52.600;4.694;2023-06-26T05:35:56;7.57;;;2.87;;
62724;SDS011;49026;52.600;4.694;2023-06-26T05:38:22;10.88;;;2.97;;
62724;SDS011;49026;52.600;4.694;2023-06-26T05:40:47;10.65;;;3.42;;
62724;SDS011;49026;52.600;4.694;2023-06-26T05:43:14;11.43;;;3.42;;
62724;SDS011;49026;52.600;4.694;2023-06-26T05:45:40;6.82;;;2.38;;
62724;SDS011;49026;52.600;4.694;2023-06-26T05:48:05;14.30;;;2.72;;
62724;SDS011;49026;52.600;4.694;2023-06-26T05:50:31;12.77;;;3.22;;
62724;SDS011;49026;52.600;4.694;2023-06-26T05:52:57;9.25;;;3.40;;
62724;SDS011;49026;52.600;4.694;2023-06-26T05:55:25;14.23;;;3.40;;
62724;SDS011;49026;52.600;4.694;2023-06-26T05:57:53;11.88;;;3.00;;
62724;SDS011;49026;52.600;4.694;2023-06-26T06:00:19;13.52;;;2.85;;
62724;SDS011;49026;52.600;4.694;2023-06-26T06:02:45;10.05;;;3.33;;
62724;SDS011;49026;52.600;4.694;2023-06-26T06:05:10;11.25;;;3.22;;
62724;SDS011;49026;52.600;4.694;2023-06-26T06:07:36;12.85;;;2.50;;
62724;SDS011;49026;52.600;4.694;2023-06-26T06:10:02;11.65;;;3.10;;
62724;SDS011;49026;52.600;4.694;2023-06-26T06:12:35;12.35;;;2.80;;
62724;SDS011;49026;52.600;4.694;2023-06-26T06:15:00;7.93;;;2.47;;
62724;SDS011;49026;52.600;4.694;2023-06-26T06:17:25;8.13;;;2.80;;
62724;SDS011;49026;52.600;4.694;2023-06-26T06:19:53;6.32;;;2.47;;
62724;SDS011;49026;52.600;4.694;2023-06-26T06:22:18;14.13;;;3.28;;
62724;SDS011;49026;52.600;4.694;2023-06-26T06:24:44;13.13;;;3.22;;
62724;SDS011;49026;52.600;4.694;2023-06-26T06:27:09;6.82;;;2.58;;
62724;SDS011;49026;52.600;4.694;2023-06-26T06:29:39;9.05;;;2.70;;
62724;SDS011;49026;52.600;4.694;2023-06-26T06:32:05;14.90;;;3.10;;
62724;SDS011;49026;52.600;4.694;2023-06-26T06:34:30;9.45;;;3.25;;
62724;SDS011;49026;52.600;4.694;2023-06-26T06:36:55;9.23;;;2.33;;
62724;SDS011;49026;52.600;4.694;2023-06-26T06:39:21;11.35;;;2.42;;
62724;SDS011;49026;52.600;4.694;2023-06-26T06:41:46;7.88;;;2.55;;
62724;SDS011;49026;52.600;4.694;2023-06-26T06:44:13;10.55;;;2.47;;
62724;SDS011;49026;52.600;4.694;2023-06-26T06:46:39;13.43;;;2.80;;
62724;SDS011;49026;52.600;4.694;2023-06-26T06:49:09;7.03;;;2.20;;
62724;SDS011;49026;52.600;4.694;2023-06-26T06:51:34;12.60;;;3.05;;
62724;SDS011;49026;52.600;4.694;2023-06-26T06:54:01;11.90;;;2.25;;
62724;SDS011;49026;52.600;4.694;2023-06-26T06:56:27;8.15;;;2.22;;
62724;SDS011;49026;52.600;4.694;2023-06-26T06:58:52;14.45;;;2.15;;
62724;SDS011;49026;52.600;4.694;2023-06-26T07:01:18;13.88;;;2.63;;
62724;SDS011;49026;52.600;4.694;2023-06-26T07:03:45;7.07;;;2.28;;
62724;SDS011;49026;52.600;4.694;2023-06-26T07:06:11;12.00;;;2.10;;
62724;SDS011;49026;52.600;4.694;2023-06-26T07:08:38;8.48;;;2.03;;
62724;SDS011;49026;52.600;4.694;2023-06-26T07:11:04;7.38;;;2.00;;
62724;SDS011;49026;52.600;4.694;2023-06-26T07:13:32;14.13;;;2.42;;
62724;SDS011;49026;52.600;4.694;2023-06-26T07:15:57;6.20;;;1.25;;
62724;SDS011;49026;52.600;4.694;2023-06-26T07:18:25;8.07;;;1.50;;
62724;SDS011;49026;52.600;4.694;2023-06-26T07:20:50;11.55;;;2.03;;
62724;SDS011;49026;52.600;4.694;2023-06-26T07:23:15;5.15;;;1.52;;
62724;SDS011;49026;52.600;4.694;2023-06-26T07:25:40;6.35;;;1.60;;
62724;SDS011;49026;52.600;4.694;2023-06-26T07:28:09;8.52;;;1.83;;
62724;SDS011;49026;52.600;4.694;2023-06-26T07:30:40;10.57;;;1.77;;
62724;SDS011;49026;52.600;4.694;2023-06-26T07:33:08;8.68;;;1.55;;
62724;SDS011;49026;52.600;4.694;2023-06-26T07:35:34;7.45;;;1.60;;
62724;SDS011;49026;52.600;4.694;2023-06-26T07:38:01;6.03;;;1.70;;
62724;SDS011;49026;52.600;4.694;2023-06-26T07:40:27;8.48;;;1.52;;
62724;SDS011;49026;52.600;4.694;2023-06-26T07:42:52;10.57;;;1.45;;
62724;SDS011;49026;52.600;4.694;2023-06-26T07:45:19;5.78;;;1.55;;
62724;SDS011;49026;52.600;4.694;2023-06-26T07:47:44;9.32;;;1.90;;
62724;SDS011;49026;52.600;4.694;2023-06-26T07:50:10;6.75;;;2.35;;
62724;SDS011;49026;52.600;4.694;2023-06-26T07:52:36;8.38;;;2.08;;
62724;SDS011;49026;52.600;4.694;2023-06-26T07:55:01;8.60;;;1.77;;
62724;SDS011;49026;52.600;4.694;2023-06-26T07:57:26;7.38;;;1.50;;
62724;SDS011;49026;52.600;4.694;2023-06-26T07:59:52;9.60;;;2.17;;
62724;SDS011;49026;52.600;4.694;2023-06-26T08:02:17;11.60;;;2.15;;
62724;SDS011;49026;52.600;4.694;2023-06-26T08:04:42;10.75;;;1.83;;
62724;SDS011;49026;52.600;4.694;2023-06-26T08:07:08;6.47;;;1.63;;
62724;SDS011;49026;52.600;4.694;2023-06-26T08:09:34;5.88;;;2.03;;
62724;SDS011;49026;52.600;4.694;2023-06-26T08:11:59;6.25;;;1.60;;
62724;SDS011;49026;52.600;4.694;2023-06-26T08:14:25;8.75;;;1.75;;
62724;SDS011;49026;52.600;4.694;2023-06-26T08:16:53;6.65;;;1.80;;
62724;SDS011;49026;52.600;4.694;2023-06-26T08:19:18;7.90;;;1.77;;
62724;SDS011;49026;52.600;4.694;2023-06-26T08:21:48;11.02;;;1.63;;
62724;SDS011;49026;52.600;4.694;2023-06-26T08:24:13;12.00;;;1.88;;
62724;SDS011;49026;52.600;4.694;2023-06-26T08:26:41;11.30;;;2.05;;
62724;SDS011;49026;52.600;4.694;2023-06-26T08:29:09;11.27;;;1.92;;
62724;SDS011;49026;52.600;4.694;2023-06-26T08:31:34;9.98;;;1.85;;
62724;SDS011;49026;52.600;4.694;2023-06-26T08:34:01;4.90;;;1.50;;
62724;SDS011;49026;52.600;4.694;2023-06-26T08:36:27;7.70;;;1.60;;
62724;SDS011;49026;52.600;4.694;2023-06-26T08:38:55;10.88;;;2.33;;
62724;SDS011;49026;52.600;4.694;2023-06-26T08:41:20;10.57;;;1.60;;
62724;SDS011;49026;52.600;4.694;2023-06-26T08:43:46;8.05;;;1.95;;
62724;SDS011;49026;52.600;4.694;2023-06-26T08:48:43;6.93;;;2.00;;
62724;SDS011;49026;52.600;4.694;2023-06-26T08:51:13;9.07;;;2.17;;
62724;SDS011;49026;52.600;4.694;2023-06-26T08:53:50;8.60;;;1.80;;
62724;SDS011;49026;52.600;4.694;2023-06-26T08:56:31;15.70;;;1.80;;
62724;SDS011;49026;52.600;4.694;2023-06-26T08:59:00;7.45;;;1.52;;
62724;SDS011;49026;52.600;4.694;2023-06-26T09:01:26;9.52;;;1.55;;
62724;SDS011;49026;52.600;4.694;2023-06-26T09:03:52;5.93;;;1.60;;
62724;SDS011;49026;52.600;4.694;2023-06-26T09:06:17;10.75;;;2.13;;
62724;SDS011;49026;52.600;4.694;2023-06-26T09:08:43;5.75;;;1.95;;
62724;SDS011;49026;52.600;4.694;2023-06-26T09:11:11;10.85;;;2.28;;
62724;SDS011;49026;52.600;4.694;2023-06-26T09:13:39;6.30;;;1.90;;
62724;SDS011;49026;52.600;4.694;2023-06-26T09:16:08;9.05;;;2.05;;
62724;SDS011;49026;52.600;4.694;2023-06-26T09:18:34;10.88;;;1.92;;
62724;SDS011;49026;52.600;4.694;2023-06-26T09:21:00;8.02;;;1.70;;
62724;SDS011;49026;52.600;4.694;2023-06-26T09:23:30;9.23;;;2.15;;
62724;SDS011;49026;52.600;4.694;2023-06-26T09:25:56;8.18;;;1.65;;
62724;SDS011;49026;52.600;4.694;2023-06-26T09:28:24;9.57;;;1.73;;
62724;SDS011;49026;52.600;4.694;2023-06-26T09:30:52;6.85;;;1.70;;
62724;SDS011;49026;52.600;4.694;2023-06-26T09:33:18;4.82;;;1.60;;
62724;SDS011;49026;52.600;4.694;2023-06-26T09:35:45;10.23;;;1.90;;
62724;SDS011;49026;52.600;4.694;2023-06-26T09:38:13;7.38;;;1.63;;
62724;SDS011;49026;52.600;4.694;2023-06-26T09:40:39;11.20;;;1.83;;
62724;SDS011;49026;52.600;4.694;2023-06-26T09:43:05;9.27;;;1.83;;
62724;SDS011;49026;52.600;4.694;2023-06-26T09:45:32;8.30;;;1.90;;
62724;SDS011;49026;52.600;4.694;2023-06-26T09:48:01;7.03;;;1.55;;
62724;SDS011;49026;52.600;4.694;2023-06-26T09:50:29;5.30;;;1.30;;
62724;SDS011;49026;52.600;4.694;2023-06-26T09:55:34;9.68;;;1.42;;
62724;SDS011;49026;52.600;4.694;2023-06-26T09:57:59;4.00;;;1.27;;
62724;SDS011;49026;52.600;4.694;2023-06-26T10:00:27;9.55;;;1.88;;
62724;SDS011;49026;52.600;4.694;2023-06-26T10:02:52;9.00;;;1.75;;
62724;SDS011;49026;52.600;4.694;2023-06-26T10:05:20;7.72;;;1.65;;
62724;SDS011;49026;52.600;4.694;2023-06-26T10:07:48;5.53;;;1.80;;
62724;SDS011;49026;52.600;4.694;2023-06-26T10:10:17;7.18;;;1.50;;
62724;SDS011;49026;52.600;4.694;2023-06-26T10:12:44;15.05;;;2.35;;
62724;SDS011;49026;52.600;4.694;2023-06-26T10:15:13;11.00;;;1.55;;
62724;SDS011;49026;52.600;4.694;2023-06-26T10:17:41;8.38;;;2.05;;
62724;SDS011;49026;52.600;4.694;2023-06-26T10:20:08;8.45;;;1.75;;
62724;SDS011;49026;52.600;4.694;2023-06-26T10:22:39;8.50;;;1.75;;
62724;SDS011;49026;52.600;4.694;2023-06-26T10:25:09;7.47;;;1.42;;
62724;SDS011;49026;52.600;4.694;2023-06-26T10:27:42;9.32;;;1.90;;
62724;SDS011;49026;52.600;4.694;2023-06-26T10:30:16;8.48;;;1.63;;
62724;SDS011;49026;52.600;4.694;2023-06-26T10:32:46;5.93;;;1.75;;
62724;SDS011;49026;52.600;4.694;2023-06-26T10:35:13;7.78;;;1.52;;
62724;SDS011;49026;52.600;4.694;2023-06-26T10:37:46;13.00;;;1.75;;
62724;SDS011;49026;52.600;4.694;2023-06-26T10:40:21;10.55;;;1.70;;
62724;SDS011;49026;52.600;4.694;2023-06-26T10:43:11;11.10;;;2.42;;
62724;SDS011;49026;52.600;4.694;2023-06-26T10:45:47;9.18;;;1.73;;
62724;SDS011;49026;52.600;4.694;2023-06-26T10:48:19;10.32;;;1.73;;
62724;SDS011;49026;52.600;4.694;2023-06-26T10:50:48;7.15;;;1.67;;
62724;SDS011;49026;52.600;4.694;2023-06-26T10:53:23;7.90;;;1.75;;
62724;SDS011;49026;52.600;4.694;2023-06-26T11:03:44;9.18;;;1.67;;
62724;SDS011;49026;52.600;4.694;2023-06-26T11:06:14;7.85;;;1.55;;
62724;SDS011;49026;52.600;4.694;2023-06-26T11:08:46;7.47;;;1.33;;
62724;SDS011;49026;52.600;4.694;2023-06-26T11:11:21;7.88;;;1.75;;
62724;SDS011;49026;52.600;4.694;2023-06-26T11:14:07;10.63;;;1.98;;
62724;SDS011;49026;52.600;4.694;2023-06-26T11:16:33;8.15;;;1.63;;
62724;SDS011;49026;52.600;4.694;2023-06-26T11:18:59;9.82;;;1.67;;
62724;SDS011;49026;52.600;4.694;2023-06-26T11:21:25;5.50;;;1.35;;
62724;SDS011;49026;52.600;4.694;2023-06-26T11:23:51;9.98;;;2.20;;
62724;SDS011;49026;52.600;4.694;2023-06-26T11:26:21;7.18;;;1.50;;
62724;SDS011;49026;52.600;4.694;2023-06-26T11:31:28;7.75;;;1.90;;
62724;SDS011;49026;52.600;4.694;2023-06-26T11:33:55;7.90;;;2.13;;
62724;SDS011;49026;52.600;4.694;2023-06-26T11:36:24;4.32;;;1.30;;
62724;SDS011;49026;52.600;4.694;2023-06-26T11:38:59;5.18;;;1.50;;
62724;SDS011;49026;52.600;4.694;2023-06-26T11:41:30;8.15;;;1.40;;
62724;SDS011;49026;52.600;4.694;2023-06-26T11:43:56;7.65;;;1.80;;
62724;SDS011;49026;52.600;4.694;2023-06-26T11:46:28;6.75;;;1.52;;
62724;SDS011;49026;52.600;4.694;2023-06-26T11:48:54;6.45;;;1.85;;
62724;SDS011;49026;52.600;4.694;2023-06-26T11:51:19;10.05;;;2.03;;
62724;SDS011;49026;52.600;4.694;2023-06-26T11:53:45;4.70;;;1.35;;
62724;SDS011;49026;52.600;4.694;2023-06-26T11:56:13;7.10;;;1.65;;
62724;SDS011;49026;52.600;4.694;2023-06-26T11:58:55;7.65;;;1.48;;
62724;SDS011;49026;52.600;4.694;2023-06-26T12:01:23;8.43;;;1.23;;
62724;SDS011;49026;52.600;4.694;2023-06-26T12:03:50;6.05;;;1.45;;
62724;SDS011;49026;52.600;4.694;2023-06-26T12:06:16;6.25;;;1.13;;
62724;SDS011;49026;52.600;4.694;2023-06-26T12:08:41;5.75;;;1.38;;
62724;SDS011;49026;52.600;4.694;2023-06-26T12:11:10;5.53;;;1.60;;
62724;SDS011;49026;52.600;4.694;2023-06-26T12:13:35;6.97;;;1.55;;
62724;SDS011;49026;52.600;4.694;2023-06-26T12:16:01;5.97;;;1.65;;
62724;SDS011;49026;52.600;4.694;2023-06-26T12:18:32;8.05;;;1.63;;
62724;SDS011;49026;52.600;4.694;2023-06-26T12:20:59;8.75;;;1.38;;
62724;SDS011;49026;52.600;4.694;2023-06-26T12:23:33;7.45;;;1.33;;
62724;SDS011;49026;52.600;4.694;2023-06-26T12:26:22;8.25;;;1.58;;
62724;SDS011;49026;52.600;4.694;2023-06-26T12:28:50;7.93;;;1.83;;
62724;SDS011;49026;52.600;4.694;2023-06-26T12:31:16;8.75;;;1.50;;
62724;SDS011;49026;52.600;4.694;2023-06-26T12:33:48;7.47;;;1.95;;
62724;SDS011;49026;52.600;4.694;2023-06-26T12:36:13;6.53;;;1.42;;
62724;SDS011;49026;52.600;4.694;2023-06-26T12:38:42;8.60;;;2.00;;
62724;SDS011;49026;52.600;4.694;2023-06-26T12:41:13;6.47;;;1.40;;
62724;SDS011;49026;52.600;4.694;2023-06-26T12:43:42;5.28;;;1.70;;
62724;SDS011;49026;52.600;4.694;2023-06-26T12:46:08;7.50;;;1.40;;
62724;SDS011;49026;52.600;4.694;2023-06-26T12:48:40;6.18;;;1.40;;
62724;SDS011;49026;52.600;4.694;2023-06-26T12:51:12;5.38;;;1.70;;
62724;SDS011;49026;52.600;4.694;2023-06-26T12:53:40;10.43;;;1.60;;
62724;SDS011;49026;52.600;4.694;2023-06-26T12:56:07;6.05;;;1.50;;
62724;SDS011;49026;52.600;4.694;2023-06-26T12:58:36;12.27;;;2.33;;
62724;SDS011;49026;52.600;4.694;2023-06-26T13:01:05;6.07;;;1.60;;
62724;SDS011;49026;52.600;4.694;2023-06-26T13:03:39;14.65;;;2.25;;
62724;SDS011;49026;52.600;4.694;2023-06-26T13:06:07;6.30;;;1.63;;
62724;SDS011;49026;52.600;4.694;2023-06-26T13:08:33;10.10;;;1.42;;
62724;SDS011;49026;52.600;4.694;2023-06-26T13:10:59;7.50;;;1.60;;
62724;SDS011;49026;52.600;4.694;2023-06-26T13:13:24;11.93;;;2.20;;
62724;SDS011;49026;52.600;4.694;2023-06-26T13:15:49;6.82;;;1.88;;
62724;SDS011;49026;52.600;4.694;2023-06-26T13:18:15;6.13;;;1.58;;
62724;SDS011;49026;52.600;4.694;2023-06-26T13:20:42;9.25;;;1.60;;
62724;SDS011;49026;52.600;4.694;2023-06-26T13:23:08;8.88;;;1.58;;
62724;SDS011;49026;52.600;4.694;2023-06-26T13:25:33;7.75;;;2.10;;
62724;SDS011;49026;52.600;4.694;2023-06-26T13:27:58;4.93;;;1.50;;
62724;SDS011;49026;52.600;4.694;2023-06-26T13:30:24;6.35;;;1.65;;
62724;SDS011;49026;52.600;4.694;2023-06-26T13:32:49;10.38;;;2.13;;
62724;SDS011;49026;52.600;4.694;2023-06-26T13:35:15;20.65;;;2.13;;
62724;SDS011;49026;52.600;4.694;2023-06-26T13:37:40;10.57;;;2.10;;
62724;SDS011;49026;52.600;4.694;2023-06-26T13:40:07;6.38;;;1.65;;
62724;SDS011;49026;52.600;4.694;2023-06-26T13:42:33;10.55;;;1.88;;
62724;SDS011;49026;52.600;4.694;2023-06-26T13:44:58;7.82;;;1.58;;
62724;SDS011;49026;52.600;4.694;2023-06-26T13:47:24;7.80;;;1.70;;
62724;SDS011;49026;52.600;4.694;2023-06-26T13:49:51;8.10;;;1.63;;
62724;SDS011;49026;52.600;4.694;2023-06-26T13:52:17;5.07;;;1.45;;
62724;SDS011;49026;52.600;4.694;2023-06-26T13:54:42;9.63;;;2.05;;
62724;SDS011;49026;52.600;4.694;2023-06-26T13:57:08;7.22;;;1.98;;
62724;SDS011;49026;52.600;4.694;2023-06-26T13:59:34;4.93;;;1.50;;
62724;SDS011;49026;52.600;4.694;2023-06-26T14:02:02;8.63;;;1.63;;
62724;SDS011;49026;52.600;4.694;2023-06-26T14:04:27;7.53;;;1.58;;
62724;SDS011;49026;52.600;4.694;2023-06-26T14:06:55;8.35;;;1.83;;
62724;SDS011;49026;52.600;4.694;2023-06-26T14:09:21;4.47;;;1.20;;
62724;SDS011;49026;52.600;4.694;2023-06-26T14:11:46;7.75;;;1.80;;
62724;SDS011;49026;52.600;4.694;2023-06-26T14:14:14;7.38;;;1.58;;
62724;SDS011;49026;52.600;4.694;2023-06-26T14:16:39;7.88;;;1.70;;
62724;SDS011;49026;52.600;4.694;2023-06-26T14:19:05;5.60;;;1.40;;
62724;SDS011;49026;52.600;4.694;2023-06-26T14:21:33;6.10;;;1.30;;
62724;SDS011;49026;52.600;4.694;2023-06-26T14:23:58;4.38;;;1.35;;
62724;SDS011;49026;52.600;4.694;2023-06-26T14:26:24;5.28;;;1.15;;
62724;SDS011;49026;52.600;4.694;2023-06-26T14:28:49;8.85;;;1.63;;
62724;SDS011;49026;52.600;4.694;2023-06-26T14:31:15;8.90;;;1.77;;
62724;SDS011;49026;52.600;4.694;2023-06-26T14:33:40;6.47;;;1.52;;
62724;SDS011;49026;52.600;4.694;2023-06-26T14:36:05;6.70;;;1.77;;
62724;SDS011;49026;52.600;4.694;2023-06-26T14:38:31;7.20;;;1.63;;
62724;SDS011;49026;52.600;4.694;2023-06-26T14:40:56;4.03;;;1.50;;
62724;SDS011;49026;52.600;4.694;2023-06-26T14:43:21;8.25;;;1.83;;
62724;SDS011;49026;52.600;4.694;2023-06-26T14:45:47;5.53;;;1.33;;
62724;SDS011;49026;52.600;4.694;2023-06-26T14:48:12;7.47;;;1.52;;
62724;SDS011;49026;52.600;4.694;2023-06-26T14:50:38;5.85;;;1.50;;
62724;SDS011;49026;52.600;4.694;2023-06-26T14:53:05;5.78;;;1.27;;
62724;SDS011;49026;52.600;4.694;2023-06-26T14:55:31;6.10;;;1.20;;
62724;SDS011;49026;52.600;4.694;2023-06-26T14:57:56;7.65;;;1.55;;
62724;SDS011;49026;52.600;4.694;2023-06-26T15:00:21;6.05;;;1.38;;
62724;SDS011;49026;52.600;4.694;2023-06-26T15:02:47;14.90;;;1.75;;
62724;SDS011;49026;52.600;4.694;2023-06-26T15:05:13;5.72;;;1.20;;